Historique des mesures à Cassis (13260), France
Quotidien Résumé Fevrier 23, 2018 Unités:  Métrique/US    US   Métrique
« Précédent (Jour)
Suivant (Jour) »
Quotidien Hebdomadaire Mensuel Annuel Période au choix
  Maximum: Minimum: Moyenne:
Température: 32 °F /  TemperatureC °C 39.7 °F /  4.3 °C 45.9 °F /  7.7 °C
Point de rosée: 32 °F /  DewpointC °C 28.4 °F /  -2.0 °C 31.6 °F /  -0.2 °C
Humidité: Humidity % 49 % 55 %
Vitesse du vent: WindSpeedKMH mph /  0 km/h - 2.7 mph /  4.3 km/h
Rafales: WindSpeedGustKMH mph /  0 km/h - -
Vent:- - SSW
Pression: 0 in /  PressurehPa hPa 29.5 in /  999.5 hPa -
Précipitations: 0 in /  0.0 mm    
Historical Graphs
 
 
Mesures pour : Fevrier 23, 2018
Heure Temperature Point de rosée Pression Vent Vitesse du vent Rafales Humidité Pluie (par heure) Conditions
32 °F /  TemperatureC °C 32 °F /  DewpointC °C 0 in /  PressurehPa hPa Calm     Humidity % 0 in /  HourlyPrecipMM mm SoftwareType W/m2
00:12 42.6 °F /  5.9 °C 32.7 °F /  0.4 °C 29.6 in /  1001.9 hPa WNW 3.2 mph /  5.1 km/h 3.5 mph /  5.6 km/h 68 % 0 in /  0.0 mm open2300-1.11 W/m2
01:12 41.2 °F /  5.1 °C 30.9 °F /  -0.6 °C 29.6 in /  1001.2 hPa Calm   13.0 mph /  20.9 km/h 67 % 0 in /  0.0 mm open2300-1.11 W/m2
02:12 40.1 °F /  4.5 °C 30.4 °F /  -0.9 °C 29.6 in /  1000.9 hPa NNE 2.6 mph /  4.2 km/h 4.3 mph /  6.9 km/h 68 % 0 in /  0.0 mm open2300-1.11 W/m2
03:12 39.7 °F /  4.3 °C 29.7 °F /  -1.3 °C 29.6 in /  1000.6 hPa NW 4.0 mph /  6.4 km/h 5.8 mph /  9.3 km/h 67 % 0 in /  0.0 mm open2300-1.11 W/m2
04:12 40.6 °F /  4.8 °C 29.8 °F /  -1.2 °C 29.5 in /  999.9 hPa Calm     65 % 0 in /  0.0 mm open2300-1.11 W/m2
05:12 40.3 °F /  4.6 °C 28.6 °F /  -1.9 °C 29.5 in /  999.5 hPa NNE 1.8 mph /  2.9 km/h 2.6 mph /  4.2 km/h 63 % 0 in /  0.0 mm open2300-1.11 W/m2
06:12 40.6 °F /  4.8 °C 28.6 °F /  -1.9 °C 29.5 in /  1000.2 hPa Calm   5.8 mph /  9.3 km/h 62 % 0 in /  0.0 mm open2300-1.11 W/m2
07:12 41 °F /  5.0 °C 28.9 °F /  -1.7 °C 29.5 in /  999.9 hPa NNW 2.1 mph /  3.4 km/h 3.5 mph /  5.6 km/h 62 % 0 in /  0.0 mm open2300-1.11 W/m2
08:12 41.7 °F /  5.4 °C 28.9 °F /  -1.7 °C 29.6 in /  1000.6 hPa Calm   3.5 mph /  5.6 km/h 60 % 0 in /  0.0 mm open2300-1.11 W/m2
09:12 43.5 °F /  6.4 °C 29.7 °F /  -1.3 °C 29.6 in /  1000.6 hPa Calm     58 % 0 in /  0.0 mm open2300-1.11 W/m2
10:12 46 °F /  7.8 °C 31.1 °F /  -0.5 °C 29.6 in /  1001.2 hPa Calm   6.4 mph /  10.3 km/h 56 % 0 in /  0.0 mm open2300-1.11 W/m2
11:12 49.8 °F /  9.9 °C 32.5 °F /  0.3 °C 29.6 in /  1001.2 hPa Calm   2.1 mph /  3.4 km/h 51 % 0 in /  0.0 mm open2300-1.11 W/m2
12:12 52.9 °F /  11.6 °C 35.8 °F /  2.1 °C 29.6 in /  1001.2 hPa SE 3.2 mph /  5.1 km/h 3.5 mph /  5.6 km/h 52 % 0 in /  0.0 mm open2300-1.11 W/m2
13:12 53.4 °F /  11.9 °C 36.7 °F /  2.6 °C 29.6 in /  1000.9 hPa Calm   2.6 mph /  4.2 km/h 53 % 0 in /  0.0 mm open2300-1.11 W/m2
14:12 53.2 °F /  11.8 °C 37 °F /  2.8 °C 29.6 in /  1000.6 hPa Calm   1.8 mph /  2.9 km/h 54 % 0 in /  0.0 mm open2300-1.11 W/m2
15:12 54 °F /  12.2 °C 36.7 °F /  2.6 °C 29.5 in /  1000.2 hPa ESE 5.0 mph /  8 km/h 5.0 mph /  8 km/h 52 % 0 in /  0.0 mm open2300-1.11 W/m2
16:12 54.1 °F /  12.3 °C 36.3 °F /  2.4 °C 29.5 in /  1000.2 hPa Calm   1.4 mph /  2.3 km/h 51 % 0 in /  0.0 mm open2300-1.11 W/m2
17:12 52 °F /  11.1 °C 33.4 °F /  0.8 °C 29.6 in /  1000.6 hPa WNW 9.3 mph /  15 km/h 16.3 mph /  26.2 km/h 49 % 0 in /  0.0 mm open2300-1.11 W/m2
18:12 49.6 °F /  9.8 °C 31.8 °F /  -0.1 °C 29.6 in /  1000.9 hPa West 8.2 mph /  13.2 km/h 16.6 mph /  26.7 km/h 50 % 0 in /  0.0 mm open2300-1.11 W/m2
19:12 48.9 °F /  9.4 °C 31.5 °F /  -0.3 °C 29.6 in /  1001.2 hPa NNW 2.1 mph /  3.4 km/h 13.4 mph /  21.6 km/h 51 % 0 in /  0.0 mm open2300-1.11 W/m2
20:12 48.2 °F /  9.0 °C 31.3 °F /  -0.4 °C 29.6 in /  1001.2 hPa NNW 1.8 mph /  2.9 km/h 6.1 mph /  9.8 km/h 52 % 0 in /  0.0 mm open2300-1.11 W/m2
21:12 47.5 °F /  8.6 °C 30.2 °F /  -1.0 °C 29.6 in /  1000.9 hPa WNW 23.0 mph /  37 km/h 23.0 mph /  37 km/h 51 % 0 in /  0.0 mm open2300-1.11 W/m2
22:12 46.9 °F /  8.3 °C 28.8 °F /  -1.8 °C 29.6 in /  1001.2 hPa Calm   1.4 mph /  2.3 km/h 49 % 0 in /  0.0 mm open2300-1.11 W/m2
23:12 45.5 °F /  7.5 °C 28.4 °F /  -2.0 °C 29.6 in /  1001.2 hPa North 1.4 mph /  2.3 km/h 10.1 mph /  16.3 km/h 51 % 0 in /  0.0 mm open2300-1.11 W/m2
Observations météo à CASSIS
WU-History script by Weather Underground - 1 mb